31.6°F
Current conditions from King Hill
Updated every 5 minutes
 
  Saturday November 1, 2014

Station Historical Data
Daily Summary for May 17, 2012 Units:  Both    English   Metric
« Previous Day
Next Day »
Daily Weekly Monthly Yearly Custom
  High: Low: Average:
Temperature: 61.6 °F /  16.4 °C 40.4 °F /  4.7 °C 51.3 °F /  10.7 °C
Dew Point: 43.8 °F /  6.6 °C 34.2 °F /  1.2 °C 37.8 °F /  3.2 °C
Humidity: 84% 39% 62%
Wind Speed: 9.0mph /  14.5km/h - 3.8mph /  6.1km/h
Wind Gust: 20.0mph /  32.2km/h - -
Wind- - WNW
Pressure: 30.14 in /  1020.5 hPa 29.85 in /  1010.7 hPa -
Precipitation: 0.00 in /  0 mm    
Historical Graphs
 
 
Tabular Data for May 17, 2012
Time Temperature Dew Point Pressure Wind Wind Speed Wind Gust Humidity Daily Rainfall
00:04 53.1 °F /  11.7 °C 43.6 °F /  6.4 °C 29.85in /  1010.7hPa West 6.0mph /  9.7km/h 17.0mph /  27.4km/h 70% 0.00in /  0mm
00:09 52.9 °F /  11.6 °C 43.8 °F /  6.6 °C 29.85in /  1010.7hPa West 3.0mph /  4.8km/h 13.0mph /  20.9km/h 71% 0.00in /  0mm
00:14 52.5 °F /  11.4 °C 43.7 °F /  6.5 °C 29.85in /  1010.7hPa WSW 3.0mph /  4.8km/h 12.0mph /  19.3km/h 72% 0.00in /  0mm
00:19 52.3 °F /  11.3 °C 43.5 °F /  6.4 °C 29.86in /  1011.1hPa WSW 5.0mph /  8km/h 12.0mph /  19.3km/h 72% 0.00in /  0mm
00:24 52.1 °F /  11.2 °C 43.4 °F /  6.3 °C 29.86in /  1011.1hPa West 5.0mph /  8km/h 11.0mph /  17.7km/h 72% 0.00in /  0mm
00:29 51.8 °F /  11 °C 43.4 °F /  6.3 °C 29.86in /  1011.1hPa WSW 3.0mph /  4.8km/h 10.0mph /  16.1km/h 73% 0.00in /  0mm
00:34 51.5 °F /  10.8 °C 43.1 °F /  6.2 °C 29.87in /  1011.4hPa West 1.0mph /  1.6km/h 8.0mph /  12.9km/h 73% 0.00in /  0mm
00:39 51.2 °F /  10.7 °C 43.2 °F /  6.2 °C 29.87in /  1011.4hPa WSW 3.0mph /  4.8km/h 9.0mph /  14.5km/h 74% 0.00in /  0mm
00:45 51.4 °F /  10.8 °C 43.4 °F /  6.3 °C 29.87in /  1011.4hPa Calm   9.0mph /  14.5km/h 74% 0.00in /  0mm
00:49 51.3 °F /  10.7 °C 43.3 °F /  6.3 °C 29.87in /  1011.4hPa WSW 3.0mph /  4.8km/h 8.0mph /  12.9km/h 74% 0.00in /  0mm
00:59 51.5 °F /  10.8 °C 43.5 °F /  6.4 °C 29.88in /  1011.7hPa West 5.0mph /  8km/h 13.0mph /  20.9km/h 74% 0.00in /  0mm
01:04 51.5 °F /  10.8 °C 43.5 °F /  6.4 °C 29.88in /  1011.7hPa West 1.0mph /  1.6km/h 13.0mph /  20.9km/h 74% 0.00in /  0mm
01:09 51.4 °F /  10.8 °C 43.7 °F /  6.5 °C 29.88in /  1011.7hPa NW 3.0mph /  4.8km/h 10.0mph /  16.1km/h 75% 0.00in /  0mm
01:14 51.2 °F /  10.7 °C 43.6 °F /  6.4 °C 29.89in /  1012.1hPa WNW 3.0mph /  4.8km/h 6.0mph /  9.7km/h 75% 0.00in /  0mm
01:19 51.1 °F /  10.6 °C 43.5 °F /  6.4 °C 29.89in /  1012.1hPa West 2.0mph /  3.2km/h 8.0mph /  12.9km/h 75% 0.00in /  0mm
01:24 51.2 °F /  10.7 °C 43.2 °F /  6.2 °C 29.89in /  1012.1hPa WNW 5.0mph /  8km/h 13.0mph /  20.9km/h 74% 0.00in /  0mm
01:29 51.2 °F /  10.7 °C 42.5 °F /  5.8 °C 29.89in /  1012.1hPa WNW 9.0mph /  14.5km/h 20.0mph /  32.2km/h 72% 0.00in /  0mm
01:34 50.9 °F /  10.5 °C 42.2 °F /  5.7 °C 29.90in /  1012.4hPa WNW 9.0mph /  14.5km/h 20.0mph /  32.2km/h 72% 0.00in /  0mm
01:39 50.6 °F /  10.3 °C 42.3 °F /  5.7 °C 29.90in /  1012.4hPa WNW 7.0mph /  11.3km/h 15.0mph /  24.1km/h 73% 0.00in /  0mm
01:44 50.5 °F /  10.3 °C 42.2 °F /  5.7 °C 29.90in /  1012.4hPa WNW 4.0mph /  6.4km/h 15.0mph /  24.1km/h 73% 0.00in /  0mm
01:49 50.0 °F /  10 °C 41.7 °F /  5.4 °C 29.91in /  1012.8hPa WNW 8.0mph /  12.9km/h 15.0mph /  24.1km/h 73% 0.00in /  0mm
01:54 49.6 °F /  9.8 °C 41.3 °F /  5.2 °C 29.91in /  1012.8hPa WNW 9.0mph /  14.5km/h 18.0mph /  29km/h 73% 0.00in /  0mm
01:59 49.4 °F /  9.7 °C 41.5 °F /  5.3 °C 29.91in /  1012.8hPa WNW 7.0mph /  11.3km/h 18.0mph /  29km/h 74% 0.00in /  0mm
02:04 49.2 °F /  9.6 °C 41.3 °F /  5.2 °C 29.91in /  1012.8hPa NW 6.0mph /  9.7km/h 13.0mph /  20.9km/h 74% 0.00in /  0mm
02:09 48.9 °F /  9.4 °C 41.3 °F /  5.2 °C 29.91in /  1012.8hPa WNW 6.0mph /  9.7km/h 12.0mph /  19.3km/h 75% 0.00in /  0mm
02:14 48.5 °F /  9.2 °C 41.3 °F /  5.2 °C 29.92in /  1013.1hPa WNW 3.0mph /  4.8km/h 12.0mph /  19.3km/h 76% 0.00in /  0mm
02:19 48.0 °F /  8.9 °C 41.1 °F /  5.1 °C 29.92in /  1013.1hPa WNW 4.0mph /  6.4km/h 9.0mph /  14.5km/h 77% 0.00in /  0mm
02:24 47.8 °F /  8.8 °C 40.9 °F /  4.9 °C 29.92in /  1013.1hPa WNW 4.0mph /  6.4km/h 11.0mph /  17.7km/h 77% 0.00in /  0mm
02:30 47.7 °F /  8.7 °C 41.2 °F /  5.1 °C 29.92in /  1013.1hPa NW 3.0mph /  4.8km/h 13.0mph /  20.9km/h 78% 0.00in /  0mm
02:40 47.8 °F /  8.8 °C 41.3 °F /  5.2 °C 29.92in /  1013.1hPa NW 4.0mph /  6.4km/h 11.0mph /  17.7km/h 78% 0.00in /  0mm
02:49 47.7 °F /  8.7 °C 41.5 °F /  5.3 °C 29.92in /  1013.1hPa NW 6.0mph /  9.7km/h 13.0mph /  20.9km/h 79% 0.00in /  0mm
02:54 47.6 °F /  8.7 °C 41.4 °F /  5.2 °C 29.92in /  1013.1hPa WNW 3.0mph /  4.8km/h 13.0mph /  20.9km/h 79% 0.00in /  0mm
02:59 47.4 °F /  8.6 °C 41.2 °F /  5.1 °C 29.93in /  1013.4hPa NW 4.0mph /  6.4km/h 7.0mph /  11.3km/h 79% 0.00in /  0mm
03:04 47.3 °F /  8.5 °C 41.4 °F /  5.2 °C 29.93in /  1013.4hPa WNW 1.0mph /  1.6km/h 7.0mph /  11.3km/h 80% 0.00in /  0mm
03:09 47.3 °F /  8.5 °C 41.4 °F /  5.2 °C 29.93in /  1013.4hPa NW 3.0mph /  4.8km/h 7.0mph /  11.3km/h 80% 0.00in /  0mm
03:14 47.3 °F /  8.5 °C 41.4 °F /  5.2 °C 29.93in /  1013.4hPa Calm   6.0mph /  9.7km/h 80% 0.00in /  0mm
03:19 47.3 °F /  8.5 °C 41.4 °F /  5.2 °C 29.93in /  1013.4hPa Calm   6.0mph /  9.7km/h 80% 0.00in /  0mm
03:24 47.2 °F /  8.4 °C 41.4 °F /  5.2 °C 29.93in /  1013.4hPa Calm   6.0mph /  9.7km/h 80% 0.00in /  0mm
03:29 47.0 °F /  8.3 °C 40.8 °F /  4.9 °C 29.94in /  1013.8hPa West 2.0mph /  3.2km/h 8.0mph /  12.9km/h 79% 0.00in /  0mm
03:35 46.8 °F /  8.2 °C 40.3 °F /  4.6 °C 29.94in /  1013.8hPa WNW 2.0mph /  3.2km/h 8.0mph /  12.9km/h 78% 0.00in /  0mm
03:44 46.4 °F /  8 °C 39.9 °F /  4.4 °C 29.94in /  1013.8hPa WNW 4.0mph /  6.4km/h 7.0mph /  11.3km/h 78% 0.00in /  0mm
03:49 46.1 °F /  7.8 °C 39.6 °F /  4.2 °C 29.94in /  1013.8hPa WNW 4.0mph /  6.4km/h 9.0mph /  14.5km/h 78% 0.00in /  0mm
03:54 45.9 °F /  7.7 °C 39.4 °F /  4.1 °C 29.94in /  1013.8hPa WNW 1.0mph /  1.6km/h 9.0mph /  14.5km/h 78% 0.00in /  0mm
03:59 45.5 °F /  7.5 °C 38.7 °F /  3.7 °C 29.94in /  1013.8hPa WNW 5.0mph /  8km/h 10.0mph /  16.1km/h 77% 0.00in /  0mm
04:04 45.4 °F /  7.4 °C 38.6 °F /  3.7 °C 29.93in /  1013.4hPa NW 4.0mph /  6.4km/h 10.0mph /  16.1km/h 77% 0.00in /  0mm
04:09 45.5 °F /  7.5 °C 38.4 °F /  3.6 °C 29.94in /  1013.8hPa NW 5.0mph /  8km/h 11.0mph /  17.7km/h 76% 0.00in /  0mm
04:14 45.5 °F /  7.5 °C 38.0 °F /  3.3 °C 29.95in /  1014.1hPa NW 3.0mph /  4.8km/h 11.0mph /  17.7km/h 75% 0.00in /  0mm
04:19 45.6 °F /  7.6 °C 38.1 °F /  3.4 °C 29.95in /  1014.1hPa WNW 4.0mph /  6.4km/h 9.0mph /  14.5km/h 75% 0.00in /  0mm
04:24 45.7 °F /  7.6 °C 38.2 °F /  3.4 °C 29.95in /  1014.1hPa WNW 1.0mph /  1.6km/h 9.0mph /  14.5km/h 75% 0.00in /  0mm
04:30 45.7 °F /  7.6 °C 38.6 °F /  3.7 °C 29.95in /  1014.1hPa Calm   5.0mph /  8km/h 76% 0.00in /  0mm
04:39 45.5 °F /  7.5 °C 37.0 °F /  2.8 °C 29.96in /  1014.4hPa NW 3.0mph /  4.8km/h 10.0mph /  16.1km/h 72% 0.00in /  0mm
04:50 45.2 °F /  7.3 °C 36.7 °F /  2.6 °C 29.95in /  1014.1hPa NW 3.0mph /  4.8km/h 14.0mph /  22.5km/h 72% 0.00in /  0mm
04:59 44.6 °F /  7 °C 37.5 °F /  3.1 °C 29.95in /  1014.1hPa NW 8.0mph /  12.9km/h 15.0mph /  24.1km/h 76% 0.00in /  0mm
05:04 44.5 °F /  6.9 °C 36.4 °F /  2.4 °C 29.96in /  1014.4hPa WNW 5.0mph /  8km/h 15.0mph /  24.1km/h 73% 0.00in /  0mm
05:09 44.1 °F /  6.7 °C 36.0 °F /  2.2 °C 29.96in /  1014.4hPa WNW 6.0mph /  9.7km/h 13.0mph /  20.9km/h 73% 0.00in /  0mm
05:14 44.0 °F /  6.7 °C 36.3 °F /  2.4 °C 29.97in /  1014.8hPa NW 1.0mph /  1.6km/h 13.0mph /  20.9km/h 74% 0.00in /  0mm
05:19 43.5 °F /  6.4 °C 35.8 °F /  2.1 °C 29.97in /  1014.8hPa NW 1.0mph /  1.6km/h 9.0mph /  14.5km/h 74% 0.00in /  0mm
05:24 43.2 °F /  6.2 °C 35.8 °F /  2.1 °C 29.97in /  1014.8hPa WNW 3.0mph /  4.8km/h 9.0mph /  14.5km/h 75% 0.00in /  0mm
05:29 43.2 °F /  6.2 °C 35.8 °F /  2.1 °C 29.98in /  1015.1hPa WNW 5.0mph /  8km/h 13.0mph /  20.9km/h 75% 0.00in /  0mm
05:34 43.3 °F /  6.3 °C 35.6 °F /  2 °C 29.98in /  1015.1hPa WNW 6.0mph /  9.7km/h 17.0mph /  27.4km/h 74% 0.00in /  0mm
05:39 43.2 °F /  6.2 °C 35.5 °F /  1.9 °C 29.98in /  1015.1hPa WNW 8.0mph /  12.9km/h 17.0mph /  27.4km/h 74% 0.00in /  0mm
05:44 43.1 °F /  6.2 °C 35.4 °F /  1.9 °C 29.99in /  1015.5hPa WNW 8.0mph /  12.9km/h 13.0mph /  20.9km/h 74% 0.00in /  0mm
05:49 42.9 °F /  6.1 °C 35.2 °F /  1.8 °C 29.99in /  1015.5hPa NW 7.0mph /  11.3km/h 13.0mph /  20.9km/h 74% 0.00in /  0mm
05:54 42.9 °F /  6.1 °C 35.2 °F /  1.8 °C 29.99in /  1015.5hPa WNW 6.0mph /  9.7km/h 13.0mph /  20.9km/h 74% 0.00in /  0mm
05:59 42.8 °F /  6 °C 35.1 °F /  1.7 °C 29.99in /  1015.5hPa NW 4.0mph /  6.4km/h 13.0mph /  20.9km/h 74% 0.00in /  0mm
06:04 42.5 °F /  5.8 °C 35.1 °F /  1.7 °C 30.00in /  1015.8hPa NW 3.0mph /  4.8km/h 11.0mph /  17.7km/h 75% 0.00in /  0mm
06:09 42.4 °F /  5.8 °C 35.0 °F /  1.7 °C 30.00in /  1015.8hPa WNW 2.0mph /  3.2km/h 10.0mph /  16.1km/h 75% 0.00in /  0mm
06:14 42.2 °F /  5.7 °C 34.9 °F /  1.6 °C 30.01in /  1016.1hPa WNW 2.0mph /  3.2km/h 8.0mph /  12.9km/h 75% 0.00in /  0mm
06:25 42.2 °F /  5.7 °C 34.9 °F /  1.6 °C 30.01in /  1016.1hPa NW 4.0mph /  6.4km/h 13.0mph /  20.9km/h 75% 0.00in /  0mm
06:34 42.3 °F /  5.7 °C 34.9 °F /  1.6 °C 30.01in /  1016.1hPa WNW 3.0mph /  4.8km/h 9.0mph /  14.5km/h 75% 0.00in /  0mm
06:44 42.5 °F /  5.8 °C 35.1 °F /  1.7 °C 30.02in /  1016.5hPa WNW 3.0mph /  4.8km/h 9.0mph /  14.5km/h 75% 0.00in /  0mm
06:50 42.7 °F /  5.9 °C 35.0 °F /  1.7 °C 30.02in /  1016.5hPa NW 3.0mph /  4.8km/h 10.0mph /  16.1km/h 74% 0.00in /  0mm
06:55 42.9 °F /  6.1 °C 35.5 °F /  1.9 °C 30.02in /  1016.5hPa Calm   10.0mph /  16.1km/h 75% 0.00in /  0mm
07:04 43.2 °F /  6.2 °C 35.1 °F /  1.7 °C 30.02in /  1016.5hPa WNW 7.0mph /  11.3km/h 12.0mph /  19.3km/h 73% 0.00in /  0mm
07:09 43.5 °F /  6.4 °C 35.4 °F /  1.9 °C 30.03in /  1016.8hPa NW 6.0mph /  9.7km/h 12.0mph /  19.3km/h 73% 0.00in /  0mm
07:14 43.8 °F /  6.6 °C 35.7 °F /  2.1 °C 30.03in /  1016.8hPa NW 2.0mph /  3.2km/h 9.0mph /  14.5km/h 73% 0.00in /  0mm
07:19 44.1 °F /  6.7 °C 36.3 °F /  2.4 °C 30.03in /  1016.8hPa NW 2.0mph /  3.2km/h 10.0mph /  16.1km/h 74% 0.00in /  0mm
07:24 44.5 °F /  6.9 °C 36.0 °F /  2.2 °C 30.03in /  1016.8hPa WNW 6.0mph /  9.7km/h 10.0mph /  16.1km/h 72% 0.00in /  0mm
07:29 44.6 °F /  7 °C 35.8 °F /  2.1 °C 30.03in /  1016.8hPa NW 5.0mph /  8km/h 12.0mph /  19.3km/h 71% 0.00in /  0mm
07:34 44.8 °F /  7.1 °C 36.3 °F /  2.4 °C 30.03in /  1016.8hPa NW 1.0mph /  1.6km/h 12.0mph /  19.3km/h 72% 0.00in /  0mm
07:39 45.3 °F /  7.4 °C 37.2 °F /  2.9 °C 30.04in /  1017.2hPa Calm   12.0mph /  19.3km/h 73% 0.00in /  0mm
07:44 45.8 °F /  7.7 °C 36.6 °F /  2.6 °C 30.04in /  1017.2hPa NW 3.0mph /  4.8km/h 8.0mph /  12.9km/h 70% 0.00in /  0mm
07:49 46.1 °F /  7.8 °C 36.9 °F /  2.7 °C 30.04in /  1017.2hPa NNW 1.0mph /  1.6km/h 8.0mph /  12.9km/h 70% 0.00in /  0mm
07:54 46.5 °F /  8.1 °C 37.3 °F /  2.9 °C 30.04in /  1017.2hPa Calm   8.0mph /  12.9km/h 70% 0.00in /  0mm
07:59 46.9 °F /  8.3 °C 36.9 °F /  2.7 °C 30.04in /  1017.2hPa NNW 1.0mph /  1.6km/h 8.0mph /  12.9km/h 68% 0.00in /  0mm
08:04 47.0 °F /  8.3 °C 36.2 °F /  2.3 °C 30.04in /  1017.2hPa NW 3.0mph /  4.8km/h 10.0mph /  16.1km/h 66% 0.00in /  0mm
08:09 47.2 °F /  8.4 °C 36.4 °F /  2.4 °C 30.04in /  1017.2hPa NW 1.0mph /  1.6km/h 10.0mph /  16.1km/h 66% 0.00in /  0mm
08:14 47.8 °F /  8.8 °C 37.8 °F /  3.2 °C 30.04in /  1017.2hPa WNW 3.0mph /  4.8km/h 9.0mph /  14.5km/h 68% 0.00in /  0mm
08:19 47.6 °F /  8.7 °C 36.0 °F /  2.2 °C 30.04in /  1017.2hPa WNW 5.0mph /  8km/h 11.0mph /  17.7km/h 64% 0.00in /  0mm
08:25 47.6 °F /  8.7 °C 36.4 °F /  2.4 °C 30.05in /  1017.5hPa WNW 7.0mph /  11.3km/h 12.0mph /  19.3km/h 65% 0.00in /  0mm
08:35 48.4 °F /  9.1 °C 35.6 °F /  2 °C 30.05in /  1017.5hPa NW 2.0mph /  3.2km/h 13.0mph /  20.9km/h 61% 0.00in /  0mm
08:44 48.8 °F /  9.3 °C 36.8 °F /  2.7 °C 30.05in /  1017.5hPa NW 2.0mph /  3.2km/h 11.0mph /  17.7km/h 63% 0.00in /  0mm
08:49 49.2 °F /  9.6 °C 37.1 °F /  2.8 °C 30.05in /  1017.5hPa NW 2.0mph /  3.2km/h 11.0mph /  17.7km/h 63% 0.00in /  0mm
08:54 49.4 °F /  9.7 °C 36.9 °F /  2.7 °C 30.05in /  1017.5hPa WNW 7.0mph /  11.3km/h 12.0mph /  19.3km/h 62% 0.00in /  0mm
08:59 49.1 °F /  9.5 °C 35.4 °F /  1.9 °C 30.05in /  1017.5hPa WNW 9.0mph /  14.5km/h 14.0mph /  22.5km/h 59% 0.00in /  0mm
09:04 49.2 °F /  9.6 °C 36.7 °F /  2.6 °C 30.05in /  1017.5hPa NW 5.0mph /  8km/h 14.0mph /  22.5km/h 62% 0.00in /  0mm
09:09 49.5 °F /  9.7 °C 35.3 °F /  1.8 °C 30.05in /  1017.5hPa NW 6.0mph /  9.7km/h 13.0mph /  20.9km/h 58% 0.00in /  0mm
09:14 49.9 °F /  9.9 °C 37.0 °F /  2.8 °C 30.05in /  1017.5hPa WNW 2.0mph /  3.2km/h 11.0mph /  17.7km/h 61% 0.00in /  0mm
09:19 50.6 °F /  10.3 °C 37.2 °F /  2.9 °C 30.05in /  1017.5hPa NW 2.0mph /  3.2km/h 11.0mph /  17.7km/h 60% 0.00in /  0mm
09:25 50.6 °F /  10.3 °C 37.7 °F /  3.2 °C 30.05in /  1017.5hPa WNW 5.0mph /  8km/h 13.0mph /  20.9km/h 61% 0.00in /  0mm
09:34 51.5 °F /  10.8 °C 38.1 °F /  3.4 °C 30.06in /  1017.8hPa NNW 2.0mph /  3.2km/h 12.0mph /  19.3km/h 60% 0.00in /  0mm
09:39 51.5 °F /  10.8 °C 37.7 °F /  3.2 °C 30.06in /  1017.8hPa NNW 3.0mph /  4.8km/h 12.0mph /  19.3km/h 59% 0.00in /  0mm
09:44 51.7 °F /  10.9 °C 37.0 °F /  2.8 °C 30.06in /  1017.8hPa NW 1.0mph /  1.6km/h 11.0mph /  17.7km/h 57% 0.00in /  0mm
09:49 51.9 °F /  11.1 °C 36.2 °F /  2.3 °C 30.06in /  1017.8hPa NW 4.0mph /  6.4km/h 10.0mph /  16.1km/h 55% 0.00in /  0mm
09:54 51.9 °F /  11.1 °C 38.0 °F /  3.3 °C 30.05in /  1017.5hPa WNW 3.0mph /  4.8km/h 10.0mph /  16.1km/h 59% 0.00in /  0mm
09:59 51.7 °F /  10.9 °C 35.6 °F /  2 °C 30.06in /  1017.8hPa WNW 7.0mph /  11.3km/h 11.0mph /  17.7km/h 54% 0.00in /  0mm
10:04 51.8 °F /  11 °C 34.7 °F /  1.5 °C 30.06in /  1017.8hPa WNW 6.0mph /  9.7km/h 13.0mph /  20.9km/h 52% 0.00in /  0mm
10:09 51.5 °F /  10.8 °C 35.4 °F /  1.9 °C 30.06in /  1017.8hPa WNW 5.0mph /  8km/h 13.0mph /  20.9km/h 54% 0.00in /  0mm
10:14 51.8 °F /  11 °C 36.6 °F /  2.6 °C 30.06in /  1017.8hPa NW 4.0mph /  6.4km/h 10.0mph /  16.1km/h 56% 0.00in /  0mm
10:20 51.8 °F /  11 °C 36.6 °F /  2.6 °C 30.06in /  1017.8hPa NW 6.0mph /  9.7km/h 12.0mph /  19.3km/h 56% 0.00in /  0mm
10:29 52.5 °F /  11.4 °C 37.7 °F /  3.2 °C 30.06in /  1017.8hPa WNW 5.0mph /  8km/h 10.0mph /  16.1km/h 57% 0.00in /  0mm
10:34 52.8 °F /  11.6 °C 39.3 °F /  4.1 °C 30.06in /  1017.8hPa WNW 2.0mph /  3.2km/h 12.0mph /  19.3km/h 60% 0.00in /  0mm
10:39 52.5 °F /  11.4 °C 36.8 °F /  2.7 °C 30.06in /  1017.8hPa NW 4.0mph /  6.4km/h 14.0mph /  22.5km/h 55% 0.00in /  0mm
10:45 52.8 °F /  11.6 °C 38.4 °F /  3.6 °C 30.06in /  1017.8hPa NW 3.0mph /  4.8km/h 14.0mph /  22.5km/h 58% 0.00in /  0mm
10:54 54.1 °F /  12.3 °C 39.2 °F /  4 °C 30.06in /  1017.8hPa NW 3.0mph /  4.8km/h 11.0mph /  17.7km/h 57% 0.00in /  0mm
10:59 54.0 °F /  12.2 °C 37.3 °F /  2.9 °C 30.06in /  1017.8hPa NW 4.0mph /  6.4km/h 13.0mph /  20.9km/h 53% 0.00in /  0mm
11:04 54.8 °F /  12.7 °C 39.0 °F /  3.9 °C 30.06in /  1017.8hPa NNW 2.0mph /  3.2km/h 14.0mph /  22.5km/h 55% 0.00in /  0mm
11:09 54.8 °F /  12.7 °C 39.0 °F /  3.9 °C 30.06in /  1017.8hPa West 4.0mph /  6.4km/h 17.0mph /  27.4km/h 55% 0.00in /  0mm
11:14 54.9 °F /  12.7 °C 38.1 °F /  3.4 °C 30.06in /  1017.8hPa West 7.0mph /  11.3km/h 17.0mph /  27.4km/h 53% 0.00in /  0mm
11:19 53.8 °F /  12.1 °C 37.1 °F /  2.8 °C 30.06in /  1017.8hPa WNW 5.0mph /  8km/h 12.0mph /  19.3km/h 53% 0.00in /  0mm
11:24 53.9 °F /  12.2 °C 37.2 °F /  2.9 °C 30.06in /  1017.8hPa NW 5.0mph /  8km/h 9.0mph /  14.5km/h 53% 0.00in /  0mm
11:29 53.2 °F /  11.8 °C 36.5 °F /  2.5 °C 30.06in /  1017.8hPa NW 3.0mph /  4.8km/h 9.0mph /  14.5km/h 53% 0.00in /  0mm
11:34 53.6 °F /  12 °C 39.2 °F /  4 °C 30.06in /  1017.8hPa WNW 2.0mph /  3.2km/h 8.0mph /  12.9km/h 58% 0.00in /  0mm
11:39 54.1 °F /  12.3 °C 36.4 °F /  2.4 °C 30.07in /  1018.2hPa WNW 5.0mph /  8km/h 13.0mph /  20.9km/h 51% 0.00in /  0mm
11:44 53.6 °F /  12 °C 37.8 °F /  3.2 °C 30.07in /  1018.2hPa WNW 2.0mph /  3.2km/h 13.0mph /  20.9km/h 55% 0.00in /  0mm
11:49 53.7 °F /  12.1 °C 37.5 °F /  3.1 °C 30.07in /  1018.2hPa NW 1.0mph /  1.6km/h 9.0mph /  14.5km/h 54% 0.00in /  0mm
11:54 54.2 °F /  12.3 °C 37.9 °F /  3.3 °C 30.07in /  1018.2hPa WNW 2.0mph /  3.2km/h 9.0mph /  14.5km/h 54% 0.00in /  0mm
11:59 55.3 °F /  12.9 °C 38.5 °F /  3.6 °C 30.07in /  1018.2hPa WNW 3.0mph /  4.8km/h 14.0mph /  22.5km/h 53% 0.00in /  0mm
12:09 55.3 °F /  12.9 °C 37.0 °F /  2.8 °C 30.07in /  1018.2hPa NW 5.0mph /  8km/h 15.0mph /  24.1km/h 50% 0.00in /  0mm
12:14 54.6 °F /  12.6 °C 36.3 °F /  2.4 °C 30.07in /  1018.2hPa NNW 5.0mph /  8km/h 15.0mph /  24.1km/h 50% 0.00in /  0mm
12:19 54.3 °F /  12.4 °C 38.0 °F /  3.3 °C 30.07in /  1018.2hPa NW 5.0mph /  8km/h 13.0mph /  20.9km/h 54% 0.00in /  0mm
12:24 55.2 °F /  12.9 °C 38.4 °F /  3.6 °C 30.07in /  1018.2hPa WNW 5.0mph /  8km/h 11.0mph /  17.7km/h 53% 0.00in /  0mm
12:29 56.0 °F /  13.3 °C 38.6 °F /  3.7 °C 30.07in /  1018.2hPa WNW 6.0mph /  9.7km/h 11.0mph /  17.7km/h 52% 0.00in /  0mm
12:34 55.6 °F /  13.1 °C 38.3 °F /  3.5 °C 30.07in /  1018.2hPa West 7.0mph /  11.3km/h 14.0mph /  22.5km/h 52% 0.00in /  0mm
12:39 55.7 °F /  13.2 °C 37.4 °F /  3 °C 30.07in /  1018.2hPa WNW 5.0mph /  8km/h 14.0mph /  22.5km/h 50% 0.00in /  0mm
12:44 56.4 °F /  13.6 °C 38.0 °F /  3.3 °C 30.06in /  1017.8hPa WNW 3.0mph /  4.8km/h 9.0mph /  14.5km/h 50% 0.00in /  0mm
12:49 56.3 °F /  13.5 °C 37.4 °F /  3 °C 30.07in /  1018.2hPa NW 2.0mph /  3.2km/h 7.0mph /  11.3km/h 49% 0.00in /  0mm
12:54 55.8 °F /  13.2 °C 38.0 °F /  3.3 °C 30.06in /  1017.8hPa NW 1.0mph /  1.6km/h 9.0mph /  14.5km/h 51% 0.00in /  0mm
12:59 56.7 °F /  13.7 °C 35.6 °F /  2 °C 30.06in /  1017.8hPa WNW 6.0mph /  9.7km/h 10.0mph /  16.1km/h 45% 0.00in /  0mm
13:04 57.2 °F /  14 °C 37.2 °F /  2.9 °C 30.06in /  1017.8hPa NW 2.0mph /  3.2km/h 10.0mph /  16.1km/h 47% 0.00in /  0mm
13:09 57.0 °F /  13.9 °C 40.5 °F /  4.7 °C 30.06in /  1017.8hPa NNW 1.0mph /  1.6km/h 12.0mph /  19.3km/h 54% 0.00in /  0mm
13:14 57.4 °F /  14.1 °C 37.3 °F /  2.9 °C 30.06in /  1017.8hPa NNW 5.0mph /  8km/h 13.0mph /  20.9km/h 47% 0.00in /  0mm
13:19 57.3 °F /  14.1 °C 37.3 °F /  2.9 °C 30.06in /  1017.8hPa West 6.0mph /  9.7km/h 15.0mph /  24.1km/h 47% 0.00in /  0mm
13:24 57.3 °F /  14.1 °C 36.2 °F /  2.3 °C 30.06in /  1017.8hPa WNW 6.0mph /  9.7km/h 15.0mph /  24.1km/h 45% 0.00in /  0mm
13:29 56.7 °F /  13.7 °C 37.2 °F /  2.9 °C 30.07in /  1018.2hPa NW 5.0mph /  8km/h 13.0mph /  20.9km/h 48% 0.00in /  0mm
13:34 56.6 °F /  13.7 °C 37.1 °F /  2.8 °C 30.07in /  1018.2hPa NW 3.0mph /  4.8km/h 13.0mph /  20.9km/h 48% 0.00in /  0mm
13:40 57.5 °F /  14.2 °C 38.5 °F /  3.6 °C 30.06in /  1017.8hPa WNW 1.0mph /  1.6km/h 10.0mph /  16.1km/h 49% 0.00in /  0mm
13:49 57.4 °F /  14.1 °C 37.9 °F /  3.3 °C 30.06in /  1017.8hPa NW 2.0mph /  3.2km/h 12.0mph /  19.3km/h 48% 0.00in /  0mm
13:54 58.0 °F /  14.4 °C 37.9 °F /  3.3 °C 30.06in /  1017.8hPa NW 7.0mph /  11.3km/h 12.0mph /  19.3km/h 47% 0.00in /  0mm
13:59 58.7 °F /  14.8 °C 39.6 °F /  4.2 °C 30.06in /  1017.8hPa Calm   11.0mph /  17.7km/h 49% 0.00in /  0mm
14:04 58.2 °F /  14.6 °C 37.5 °F /  3.1 °C 30.06in /  1017.8hPa West 6.0mph /  9.7km/h 10.0mph /  16.1km/h 46% 0.00in /  0mm
14:09 57.2 °F /  14 °C 36.1 °F /  2.3 °C 30.06in /  1017.8hPa NW 7.0mph /  11.3km/h 18.0mph /  29km/h 45% 0.00in /  0mm
14:14 57.1 °F /  13.9 °C 39.7 °F /  4.3 °C 30.06in /  1017.8hPa Calm   18.0mph /  29km/h 52% 0.00in /  0mm
14:19 58.4 °F /  14.7 °C 39.3 °F /  4.1 °C 30.06in /  1017.8hPa NW 1.0mph /  1.6km/h 12.0mph /  19.3km/h 49% 0.00in /  0mm
14:24 58.6 °F /  14.8 °C 36.2 °F /  2.3 °C 30.06in /  1017.8hPa NW 6.0mph /  9.7km/h 14.0mph /  22.5km/h 43% 0.00in /  0mm
14:29 58.7 °F /  14.8 °C 37.4 °F /  3 °C 30.06in /  1017.8hPa WNW 5.0mph /  8km/h 14.0mph /  22.5km/h 45% 0.00in /  0mm
14:34 59.0 °F /  15 °C 39.9 °F /  4.4 °C 30.06in /  1017.8hPa NNW 5.0mph /  8km/h 14.0mph /  22.5km/h 49% 0.00in /  0mm
14:39 59.5 °F /  15.3 °C 37.0 °F /  2.8 °C 30.06in /  1017.8hPa NNW 8.0mph /  12.9km/h 15.0mph /  24.1km/h 43% 0.00in /  0mm
14:44 59.2 °F /  15.1 °C 37.9 °F /  3.3 °C 30.06in /  1017.8hPa NW 2.0mph /  3.2km/h 15.0mph /  24.1km/h 45% 0.00in /  0mm
14:49 59.1 °F /  15.1 °C 36.6 °F /  2.6 °C 30.06in /  1017.8hPa NW 2.0mph /  3.2km/h 11.0mph /  17.7km/h 43% 0.00in /  0mm
14:54 59.7 °F /  15.4 °C 39.4 °F /  4.1 °C 30.06in /  1017.8hPa North 1.0mph /  1.6km/h 8.0mph /  12.9km/h 47% 0.00in /  0mm
14:59 59.8 °F /  15.4 °C 37.3 °F /  2.9 °C 30.06in /  1017.8hPa NW 4.0mph /  6.4km/h 11.0mph /  17.7km/h 43% 0.00in /  0mm
15:04 59.9 °F /  15.5 °C 36.8 °F /  2.7 °C 30.06in /  1017.8hPa NW 3.0mph /  4.8km/h 11.0mph /  17.7km/h 42% 0.00in /  0mm
15:09 59.6 °F /  15.3 °C 38.2 °F /  3.4 °C 30.06in /  1017.8hPa WNW 3.0mph /  4.8km/h 8.0mph /  12.9km/h 45% 0.00in /  0mm
15:14 59.8 °F /  15.4 °C 36.7 °F /  2.6 °C 30.06in /  1017.8hPa NW 5.0mph /  8km/h 12.0mph /  19.3km/h 42% 0.00in /  0mm
15:19 60.4 °F /  15.8 °C 39.0 °F /  3.9 °C 30.06in /  1017.8hPa North 1.0mph /  1.6km/h 12.0mph /  19.3km/h 45% 0.00in /  0mm
15:24 61.0 °F /  16.1 °C 38.9 °F /  3.8 °C 30.06in /  1017.8hPa Calm   7.0mph /  11.3km/h 44% 0.00in /  0mm
15:29 61.3 °F /  16.3 °C 39.8 °F /  4.3 °C 30.06in /  1017.8hPa Calm   7.0mph /  11.3km/h 45% 0.00in /  0mm
15:34 61.1 °F /  16.2 °C 39.6 °F /  4.2 °C 30.06in /  1017.8hPa Calm   7.0mph /  11.3km/h 45% 0.00in /  0mm
15:39 61.5 °F /  16.4 °C 38.8 °F /  3.8 °C 30.06in /  1017.8hPa Calm   7.0mph /  11.3km/h 43% 0.00in /  0mm
15:44 60.9 °F /  16.1 °C 38.3 °F /  3.5 °C 30.06in /  1017.8hPa WNW 1.0mph /  1.6km/h 7.0mph /  11.3km/h 43% 0.00in /  0mm
15:49 60.9 °F /  16.1 °C 37.7 °F /  3.2 °C 30.05in /  1017.5hPa Calm   7.0mph /  11.3km/h 42% 0.00in /  0mm
15:54 60.8 °F /  16 °C 38.2 °F /  3.4 °C 30.05in /  1017.5hPa NW 3.0mph /  4.8km/h 13.0mph /  20.9km/h 43% 0.00in /  0mm
15:59 60.4 °F /  15.8 °C 38.4 °F /  3.6 °C 30.05in /  1017.5hPa NW 3.0mph /  4.8km/h 13.0mph /  20.9km/h 44% 0.00in /  0mm
16:04 60.6 °F /  15.9 °C 38.0 °F /  3.3 °C 30.05in /  1017.5hPa Calm   8.0mph /  12.9km/h 43% 0.00in /  0mm
16:09 60.9 °F /  16.1 °C 38.3 °F /  3.5 °C 30.05in /  1017.5hPa NW 1.0mph /  1.6km/h 5.0mph /  8km/h 43% 0.00in /  0mm
16:14 61.1 °F /  16.2 °C 38.4 °F /  3.6 °C 30.06in /  1017.8hPa Calm   5.0mph /  8km/h 43% 0.00in /  0mm
16:19 61.3 °F /  16.3 °C 38.0 °F /  3.3 °C 30.05in /  1017.5hPa Calm   7.0mph /  11.3km/h 42% 0.00in /  0mm
16:24 61.4 °F /  16.3 °C 37.5 °F /  3.1 °C 30.05in /  1017.5hPa NW 3.0mph /  4.8km/h 12.0mph /  19.3km/h 41% 0.00in /  0mm
16:29 61.1 °F /  16.2 °C 36.0 °F /  2.2 °C 30.05in /  1017.5hPa Calm   12.0mph /  19.3km/h 39% 0.00in /  0mm
16:34 61.1 °F /  16.2 °C 39.0 °F /  3.9 °C 30.05in /  1017.5hPa Calm   12.0mph /  19.3km/h 44% 0.00in /  0mm
16:39 61.1 °F /  16.2 °C 37.8 °F /  3.2 °C 30.05in /  1017.5hPa NE 1.0mph /  1.6km/h 12.0mph /  19.3km/h 42% 0.00in /  0mm
16:44 61.3 °F /  16.3 °C 38.6 °F /  3.7 °C 30.05in /  1017.5hPa NW 2.0mph /  3.2km/h 7.0mph /  11.3km/h 43% 0.00in /  0mm
16:54 61.6 °F /  16.4 °C 39.5 °F /  4.2 °C 30.06in /  1017.8hPa NW 2.0mph /  3.2km/h 9.0mph /  14.5km/h 44% 0.00in /  0mm
17:04 61.2 °F /  16.2 °C 39.1 °F /  3.9 °C 30.06in /  1017.8hPa NW 1.0mph /  1.6km/h 12.0mph /  19.3km/h 44% 0.00in /  0mm
17:09 61.1 °F /  16.2 °C 37.8 °F /  3.2 °C 30.06in /  1017.8hPa North 1.0mph /  1.6km/h 6.0mph /  9.7km/h 42% 0.00in /  0mm
17:14 61.1 °F /  16.2 °C 39.0 °F /  3.9 °C 30.06in /  1017.8hPa NW 1.0mph /  1.6km/h 6.0mph /  9.7km/h 44% 0.00in /  0mm
17:19 61.1 °F /  16.2 °C 38.4 °F /  3.6 °C 30.06in /  1017.8hPa Calm   13.0mph /  20.9km/h 43% 0.00in /  0mm
17:24 61.3 °F /  16.3 °C 40.4 °F /  4.7 °C 30.06in /  1017.8hPa NNE 2.0mph /  3.2km/h 13.0mph /  20.9km/h 46% 0.00in /  0mm
17:29 61.1 °F /  16.2 °C 36.6 °F /  2.6 °C 30.07in /  1018.2hPa NW 3.0mph /  4.8km/h 9.0mph /  14.5km/h 40% 0.00in /  0mm
17:34 60.9 °F /  16.1 °C 37.1 °F /  2.8 °C 30.07in /  1018.2hPa NW 2.0mph /  3.2km/h 11.0mph /  17.7km/h 41% 0.00in /  0mm
17:39 60.8 °F /  16 °C 37.6 °F /  3.1 °C 30.07in /  1018.2hPa NW 2.0mph /  3.2km/h 11.0mph /  17.7km/h 42% 0.00in /  0mm
17:45 60.1 °F /  15.6 °C 35.7 °F /  2.1 °C 30.07in /  1018.2hPa NW 6.0mph /  9.7km/h 11.0mph /  17.7km/h 40% 0.00in /  0mm
17:54 59.9 °F /  15.5 °C 37.9 °F /  3.3 °C 30.07in /  1018.2hPa NW 3.0mph /  4.8km/h 8.0mph /  12.9km/h 44% 0.00in /  0mm
17:59 60.0 °F /  15.6 °C 36.2 °F /  2.3 °C 30.07in /  1018.2hPa NNW 3.0mph /  4.8km/h 10.0mph /  16.1km/h 41% 0.00in /  0mm
18:04 60.0 °F /  15.6 °C 35.6 °F /  2 °C 30.07in /  1018.2hPa NW 2.0mph /  3.2km/h 10.0mph /  16.1km/h 40% 0.00in /  0mm
18:09 59.9 °F /  15.5 °C 36.8 °F /  2.7 °C 30.08in /  1018.5hPa NW 4.0mph /  6.4km/h 11.0mph /  17.7km/h 42% 0.00in /  0mm
18:14 59.4 °F /  15.2 °C 36.3 °F /  2.4 °C 30.07in /  1018.2hPa NNE 2.0mph /  3.2km/h 11.0mph /  17.7km/h 42% 0.00in /  0mm
18:20 59.2 °F /  15.1 °C 37.3 °F /  2.9 °C 30.07in /  1018.2hPa NNW 3.0mph /  4.8km/h 10.0mph /  16.1km/h 44% 0.00in /  0mm
18:30 58.5 °F /  14.7 °C 35.5 °F /  1.9 °C 30.07in /  1018.2hPa NW 5.0mph /  8km/h 14.0mph /  22.5km/h 42% 0.00in /  0mm
18:39 57.7 °F /  14.3 °C 34.8 °F /  1.6 °C 30.08in /  1018.5hPa WNW 4.0mph /  6.4km/h 11.0mph /  17.7km/h 42% 0.00in /  0mm
18:44 57.7 °F /  14.3 °C 34.2 °F /  1.2 °C 30.08in /  1018.5hPa NW 5.0mph /  8km/h 11.0mph /  17.7km/h 41% 0.00in /  0mm
18:49 57.4 °F /  14.1 °C 35.7 °F /  2.1 °C 30.08in /  1018.5hPa NW 5.0mph /  8km/h 12.0mph /  19.3km/h 44% 0.00in /  0mm
18:54 57.4 °F /  14.1 °C 34.5 °F /  1.4 °C 30.08in /  1018.5hPa NW 1.0mph /  1.6km/h 12.0mph /  19.3km/h 42% 0.00in /  0mm
18:59 57.5 °F /  14.2 °C 35.8 °F /  2.1 °C 30.08in /  1018.5hPa WNW 2.0mph /  3.2km/h 9.0mph /  14.5km/h 44% 0.00in /  0mm
19:04 57.4 °F /  14.1 °C 35.1 °F /  1.7 °C 30.08in /  1018.5hPa NW 1.0mph /  1.6km/h 9.0mph /  14.5km/h 43% 0.00in /  0mm
19:09 57.1 °F /  13.9 °C 36.0 °F /  2.2 °C 30.08in /  1018.5hPa Calm   8.0mph /  12.9km/h 45% 0.00in /  0mm
19:14 56.9 °F /  13.8 °C 36.3 °F /  2.4 °C 30.08in /  1018.5hPa Calm   6.0mph /  9.7km/h 46% 0.00in /  0mm
19:19 56.7 °F /  13.7 °C 35.6 °F /  2 °C 30.08in /  1018.5hPa Calm   5.0mph /  8km/h 45% 0.00in /  0mm
19:24 56.5 °F /  13.6 °C 37.6 °F /  3.1 °C 30.08in /  1018.5hPa Calm   1.0mph /  1.6km/h 49% 0.00in /  0mm
19:29 56.2 °F /  13.4 °C 36.2 °F /  2.3 °C 30.08in /  1018.5hPa Calm   3.0mph /  4.8km/h 47% 0.00in /  0mm
19:34 55.8 °F /  13.2 °C 36.4 °F /  2.4 °C 30.09in /  1018.8hPa Calm   5.0mph /  8km/h 48% 0.00in /  0mm
19:44 55.3 °F /  12.9 °C 37.0 °F /  2.8 °C 30.09in /  1018.8hPa Calm   1.0mph /  1.6km/h 50% 0.00in /  0mm
19:49 54.7 °F /  12.6 °C 36.9 °F /  2.7 °C 30.09in /  1018.8hPa Calm     51% 0.00in /  0mm
19:54 54.2 °F /  12.3 °C 36.0 °F /  2.2 °C 30.09in /  1018.8hPa Calm   1.0mph /  1.6km/h 50% 0.00in /  0mm
19:59 53.7 °F /  12.1 °C 36.0 °F /  2.2 °C 30.09in /  1018.8hPa Calm   1.0mph /  1.6km/h 51% 0.00in /  0mm
20:04 53.2 °F /  11.8 °C 36.5 °F /  2.5 °C 30.10in /  1019.2hPa Calm   3.0mph /  4.8km/h 53% 0.00in /  0mm
20:09 52.3 °F /  11.3 °C 38.0 °F /  3.3 °C 30.10in /  1019.2hPa Calm   3.0mph /  4.8km/h 58% 0.00in /  0mm
20:14 51.1 °F /  10.6 °C 39.0 °F /  3.9 °C 30.10in /  1019.2hPa Calm     63% 0.00in /  0mm
20:19 49.9 °F /  9.9 °C 37.8 °F /  3.2 °C 30.10in /  1019.2hPa Calm     63% 0.00in /  0mm
20:24 49.2 °F /  9.6 °C 37.9 °F /  3.3 °C 30.10in /  1019.2hPa Calm     65% 0.00in /  0mm
20:29 48.6 °F /  9.2 °C 37.4 °F /  3 °C 30.10in /  1019.2hPa Calm     65% 0.00in /  0mm
20:34 48.3 °F /  9.1 °C 37.5 °F /  3.1 °C 30.11in /  1019.5hPa Calm     66% 0.00in /  0mm
20:44 48.1 °F /  8.9 °C 36.9 °F /  2.7 °C 30.11in /  1019.5hPa Calm   1.0mph /  1.6km/h 65% 0.00in /  0mm
20:49 47.9 °F /  8.8 °C 37.1 °F /  2.8 °C 30.11in /  1019.5hPa Calm   1.0mph /  1.6km/h 66% 0.00in /  0mm
20:59 47.7 °F /  8.7 °C 36.5 °F /  2.5 °C 30.12in /  1019.9hPa Calm   1.0mph /  1.6km/h 65% 0.00in /  0mm
21:04 47.7 °F /  8.7 °C 37.7 °F /  3.2 °C 30.12in /  1019.9hPa Calm     68% 0.00in /  0mm
21:09 47.4 °F /  8.6 °C 37.0 °F /  2.8 °C 30.12in /  1019.9hPa Calm     67% 0.00in /  0mm
21:14 47.3 °F /  8.5 °C 36.5 °F /  2.5 °C 30.12in /  1019.9hPa Calm     66% 0.00in /  0mm
21:19 47.4 °F /  8.6 °C 37.4 °F /  3 °C 30.12in /  1019.9hPa Calm     68% 0.00in /  0mm
21:24 46.8 °F /  8.2 °C 36.8 °F /  2.7 °C 30.12in /  1019.9hPa Calm     68% 0.00in /  0mm
21:29 46.0 °F /  7.8 °C 37.1 °F /  2.8 °C 30.12in /  1019.9hPa Calm     71% 0.00in /  0mm
21:34 45.2 °F /  7.3 °C 36.7 °F /  2.6 °C 30.12in /  1019.9hPa Calm     72% 0.00in /  0mm
21:44 44.3 °F /  6.8 °C 37.2 °F /  2.9 °C 30.12in /  1019.9hPa Calm     76% 0.00in /  0mm
21:49 43.9 °F /  6.6 °C 36.8 °F /  2.7 °C 30.12in /  1019.9hPa Calm     76% 0.00in /  0mm
21:54 43.7 °F /  6.5 °C 36.6 °F /  2.6 °C 30.12in /  1019.9hPa Calm     76% 0.00in /  0mm
21:59 43.6 °F /  6.4 °C 36.5 °F /  2.5 °C 30.12in /  1019.9hPa Calm     76% 0.00in /  0mm
22:04 43.3 °F /  6.3 °C 35.9 °F /  2.2 °C 30.13in /  1020.2hPa Calm     75% 0.00in /  0mm
22:09 43.2 °F /  6.2 °C 36.5 °F /  2.5 °C 30.13in /  1020.2hPa Calm     77% 0.00in /  0mm
22:14 42.9 °F /  6.1 °C 36.2 °F /  2.3 °C 30.13in /  1020.2hPa Calm     77% 0.00in /  0mm
22:19 42.8 °F /  6 °C 35.8 °F /  2.1 °C 30.13in /  1020.2hPa Calm     76% 0.00in /  0mm
22:24 42.6 °F /  5.9 °C 35.9 °F /  2.2 °C 30.13in /  1020.2hPa Calm     77% 0.00in /  0mm
22:29 42.4 °F /  5.8 °C 35.7 °F /  2.1 °C 30.13in /  1020.2hPa Calm     77% 0.00in /  0mm
22:34 42.2 °F /  5.7 °C 36.2 °F /  2.3 °C 30.13in /  1020.2hPa Calm     79% 0.00in /  0mm
22:40 41.8 °F /  5.4 °C 35.8 °F /  2.1 °C 30.13in /  1020.2hPa Calm     79% 0.00in /  0mm
22:49 41.4 °F /  5.2 °C 36.0 °F /  2.2 °C 30.13in /  1020.2hPa Calm     81% 0.00in /  0mm
22:55 41.2 °F /  5.1 °C 36.1 °F /  2.3 °C 30.13in /  1020.2hPa Calm     82% 0.00in /  0mm
23:04 41.2 °F /  5.1 °C 35.5 °F /  1.9 °C 30.13in /  1020.2hPa Calm     80% 0.00in /  0mm
23:09 41.6 °F /  5.3 °C 35.6 °F /  2 °C 30.13in /  1020.2hPa Calm     79% 0.00in /  0mm
23:14 42.0 °F /  5.6 °C 36.0 °F /  2.2 °C 30.13in /  1020.2hPa Calm   1.0mph /  1.6km/h 79% 0.00in /  0mm
23:19 42.1 °F /  5.6 °C 36.1 °F /  2.3 °C 30.13in /  1020.2hPa Calm   1.0mph /  1.6km/h 79% 0.00in /  0mm
23:24 42.0 °F /  5.6 °C 36.0 °F /  2.2 °C 30.13in /  1020.2hPa Calm     79% 0.00in /  0mm
23:29 41.8 °F /  5.4 °C 36.1 °F /  2.3 °C 30.13in /  1020.2hPa Calm     80% 0.00in /  0mm
23:34 41.6 °F /  5.3 °C 36.2 °F /  2.3 °C 30.13in /  1020.2hPa Calm     81% 0.00in /  0mm
23:39 41.2 °F /  5.1 °C 36.1 °F /  2.3 °C 30.14in /  1020.5hPa Calm   1.0mph /  1.6km/h 82% 0.00in /  0mm
23:49 40.5 °F /  4.7 °C 35.7 °F /  2.1 °C 30.14in /  1020.5hPa Calm   1.0mph /  1.6km/h 83% 0.00in /  0mm
23:54 40.4 °F /  4.7 °C 35.7 °F /  2.1 °C 30.14in /  1020.5hPa Calm   1.0mph /  1.6km/h 83% 0.00in /  0mm
23:59 40.4 °F /  4.7 °C 36.0 °F /  2.2 °C 30.14in /  1020.5hPa Calm   1.0mph /  1.6km/h 84% 0.00in /  0mm
Westford Weather
Compliments of Weather Underground

 
 
Current Radar Loop:

Copyright © WestfordWeather.net 2007-2014. All rights reserved.